Athens Eleftherios, Greece

6:06 PM EET on February 06, 2016 (GMT +0200)
Pallini Kantza | | Change Station
CLOSE
Current Station
Personal Weather Station
Location: Kantza Pallini Attica, GREECE
Elevation: 590 ft
Nearby Weather Stations

Elev 590 ft 37.99 °N, 23.86 °E | Updated 1 second ago

Partly Cloudy
Partly Cloudy
44.2 °F
Feels Like 44 °F
N
2.2
Wind Variable Wind from North
Gusts 4.4 mph

Today
High -- | Low -- °F
--% Chance of Precip.
Yesterday
High -- | Low -- °F
Precip. -- in
Pressure 30.33 in
Visibility 6.2 miles
Clouds Few 3000 ft
Windchill 44 °F
Dew Point 30 °F
Humidity 57%
Rainfall 0.37 in
Snow Depth Not available.
7:24 AM 5:52 PM
Waning Crescent, 5% visible
METAR LGAV 061520Z 36008KT 9999 FEW030 09/M02 Q1027 NOSIG
Pressure 30.33 in
Visibility 6.2 miles
Clouds Few 3000 ft
Windchill 44 °F
Dew Point 30 °F
Humidity 57%
Rainfall 0.37 in
Snow Depth Not available.
7:24 AM 5:52 PM
Waning Crescent, 5% visible
METAR LGAV 061520Z 36008KT 9999 FEW030 09/M02 Q1027 NOSIG

10-Day Weather Forecast

Almanac

Astronomy

Feb. 06, 2016 Rise Set
Actual Time
Civil Twilight
Nautical Twilight
Astronomical Twilight
Moon
Length of Visible Light
Length of Day
Tomorrow will be .
, % of the Moon is Illuminated

Today's Extremes

Country Highs Country Lows

Community

WunderPhotos

Upload Photos

1,890,997 photos uploaded!

WunderBlog® & News

Nearby

Air Quality

  Air Quality AQ Index Pollutant
Not available.

Snow Depth

Station Depth Elevation

Earthquake Activity

City Distance Mag. Time & Date
Minimum magnitude displayed is 2.5.

Coastal Water Temperatures

Place Temperature

Stations

Nearby Weather Stations

Station Location Temp. Windchill Dew Point Humidity Wind Precip. Elev Updated Type